Alpha, California Weather observations

Data are for observation ending at time listed.
 Day   Time    Ave.   Ave.  Ave.  Vector   Max.   Stn.    Total    Solar   Ave.   Snow 
  of    of     Air    Rel.  Wind   Wind    Wind   Baro.  Precip.   Rad.    Soil   Depth
Year   Day     Temp.  Hum.  Speed  Dir.    Gust   Pres.                    Temp.       
2015   (PST)    F      %     mph   deg.    mph     mb.     in.     W/m2     F      in. 
---------------------------------------------------------------------------------------  
 141    9:40   39.1    89    1.6   318      3.4   781.1    0.00     212    999.0   13.7
 141    9:50   40.7    90    1.4   327      3.4   781.1    0.00     404    999.0   13.5
 141   10:00   41.1    87    1.7   342      8.4   781.2    0.00     175    999.0   13.7
 141   10:10   38.8    85    3.5   358     11.2   781.2    0.00      75    999.0   13.8
 141   10:20   38.0    88    2.4   344      5.3   781.3    0.00      57    999.0   13.8
 141   10:30   37.7    89    2.0   350      4.8   781.2    0.00      70    999.0   13.7
 141   10:40   37.7    89    1.7   350      3.5   781.2    0.00     130    999.0   13.7
 141   10:50   37.7    89    2.1     2      6.5   781.3    0.00      77    999.0   13.8
 141   11:00   37.2    89    2.4     8      5.7   781.4    0.00      34    999.0   13.8
 141   11:10   36.7    90    2.6     2      6.1   781.5    0.00      42    999.0   13.8
 141   11:20   36.8    91    1.7    27      4.2   781.6    0.00      58    999.0   13.8
 141   11:30   36.7    91    3.4   110      6.9   781.6    0.00      38    999.0   13.6
 141   11:40   36.2    92    3.2   124      6.6   781.6    0.00      19    999.0   13.4
 141   11:50   35.5    94    3.0   147      7.2   781.6    0.00      33    999.0   13.2
 141   12:00   35.2    94    1.5   140      3.6   781.7    0.00      42    999.0   13.4
 141   12:10   35.0    94    2.0   350      4.6   781.5    0.00      95    999.0   13.4
 141   12:20   35.5    94    1.6   327      2.9   781.4    0.00     131    999.0   13.8
 141   12:30   36.4    94    1.8   344      4.5   781.4    0.00     165    999.0   13.6
 141   12:40   36.9    94    1.6   338      3.7   781.4    0.00     219    999.0   13.7
 141   12:50   37.7    94    2.4   339      5.7   781.3    0.00     390    999.0   13.4
 141   13:00   38.0    92    2.4   340      6.6   781.3    0.00     410    999.0   13.7
 141   13:10   38.2    92    2.9   352      8.3   781.3    0.00     258    999.0   13.7
 141   13:20   38.6    91    1.9   340      4.7   781.2    0.00     461    999.0   13.4
 141   13:30   39.3    88    1.9   356      3.9   781.2    0.00     284    999.0   13.6
 141   13:40   39.4    90    1.4   326      4.1   781.2    0.00     177    999.0   13.7
 141   13:50   39.6    89    1.7   334      4.3   781.2    0.00     231    999.0   13.7
 141   14:00   39.1    89    1.9   328      4.1   781.2    0.00     105    999.0   13.7
 141   14:10   38.4    90    1.7   328      3.0   781.3    0.00     108    999.0   13.8
 141   14:20   38.0    90    2.2   323      5.1   781.2    0.00     115    999.0   13.8
 141   14:30   38.6    92    1.2   335      4.2   781.2    0.00     192    999.0   13.9
 141   14:40   38.7    88    1.5   328      3.1   781.2    0.00      98    999.0   13.8
 141   14:50   38.4    90    1.5   336      3.2   781.2    0.00     164    999.0   13.8
 141   15:00   38.8    90    1.6   336      3.9   781.2    0.00     175    999.0   13.9
 141   15:10   38.6    89    2.3   331      4.7   781.1    0.00     152    999.0   13.8
 141   15:20   38.0    90    2.3   330      5.1   781.0    0.00     123    999.0   13.8
 141   15:30   38.4    92    1.7   335      4.8   781.0    0.00     133    999.0   13.9
 141   15:40   38.6    92    2.2   331      4.2   781.0    0.00     138    999.0   13.9
 141   15:50   38.4    92    2.4   326      6.4   781.0    0.00      96    999.0   13.9
 141   16:00   38.1    92    2.2   328      5.4   781.0    0.00      85    999.0   13.8
 141   16:10   38.1    92    2.2   325      4.7   781.1    0.00     107    999.0   13.8
 141   16:20   37.8    92    2.2   334      4.8   781.1    0.00      85    999.0   13.8
 141   16:30   37.9    92    1.6   329      3.7   781.1    0.00     105    999.0   13.7
 141   16:40   38.6    92    1.8   319      4.7   781.2    0.00     124    999.0   13.7
 141   16:50   38.3    92    2.1   318      4.7   781.2    0.00      90    999.0   13.7
 141   17:00   37.9    92    2.6   327      7.7   781.1    0.00      64    999.0   13.7
 141   17:10   37.3    93    1.8   335      3.7   781.2    0.00      58    999.0   13.7
 141   17:20   37.3    93    1.7   340      6.6   781.2    0.00      63    999.0   13.7
 141   17:30   37.4    93    1.3   329      4.0   781.2    0.00      39    999.0   13.8
 141   17:40   37.4    93    1.7   318      3.7   781.2    0.00      51    999.0   13.7
 141   17:50   37.2    93    1.1   316      2.4   781.2    0.00      22    999.0   13.7
 141   18:00   37.2    94    1.5   323      2.9   781.2    0.00      36    999.0   13.8
 141   18:10   37.0    94    1.8   321      3.7   781.2    0.00      35    999.0   13.8
 141   18:20   36.9    94    1.7   328      3.9   781.2    0.00      26    999.0   13.7
 141   18:30   36.6    94    1.6   330      3.1   781.3    0.00      16    999.0   13.8
 141   18:40   36.5    94    1.3   326      2.9   781.3    0.00      11    999.0   13.8
 141   18:50   36.7    94    1.3   332      3.1   781.3    0.00       7    999.0   13.8
 141   19:00   36.7    94    1.7   329      3.3   781.3    0.00       3    999.0   13.7
 141   19:10   36.7    94    1.2   327      3.8   781.4    0.00       1    999.0   13.8
 141   19:20   36.5    94    1.2   330      2.6   781.5    0.00       0    999.0   13.8
 141   19:30   36.4    94    1.2   330      2.7   781.6    0.00       0    999.0   13.7
 141   19:40   36.4    95    1.3   329      3.4   781.5    0.00       0    999.0   13.6
 141   19:50   36.4    95    1.0   339      2.6   781.6    0.00       0    999.0   13.6
 141   20:00   36.1    95    1.6   345      5.2   781.6    0.00       0    999.0   13.5
 141   20:10   35.7    95    1.3   341      1.8   781.6    0.00       0    999.0   13.4
 141   20:20   35.6    95    1.3   338      1.9   781.6    0.00       0    999.0   13.7
 141   20:30   35.6    95    1.5   340      2.2   781.7    0.00       0    999.0   13.6
 141   20:40   35.5    95    1.5   342      2.3   781.7    0.00       0    999.0   13.4
 141   20:50   35.2    95    2.2   353      3.6   781.8    0.00       0    999.0   13.6
 141   21:00   35.2    95    1.9   355      3.6   781.8    0.00       0    999.0   13.5
 141   21:10   35.1    95    1.8   354      3.6   781.8    0.00       0    999.0   13.5
 141   21:20   35.1    95    1.1   348      2.7   781.8    0.00       0    999.0   13.7
 141   21:30   35.1    95    0.9   348      2.1   781.8    0.00       0    999.0   13.7
 141   21:40   35.2    95    0.4   353      1.8   781.8    0.00       0    999.0   13.7
 141   21:50   35.2    95    0.0   342      0.5   781.8    0.00       0    999.0   13.6
 141   22:00   35.4    95    0.1   333      1.0   781.8    0.00       0    999.0   13.4
 141   22:10   35.6    95    0.2   350      1.7   781.8    0.00       0    999.0   13.4
 141   22:20   35.7    95    0.1   348      0.7   781.8    0.00       0    999.0   13.4
 141   22:30   35.7    95    0.8   329      2.3   781.7    0.00       0    999.0   13.3
 141   22:40   35.8    95    0.4   349      1.2   781.8    0.00       0    999.0   13.2
 141   22:50   35.7    95    0.6   324      1.8   781.8    0.00       0    999.0   13.2
 141   23:00   35.7    95    0.4   339      1.1   781.8    0.00       0    999.0   13.1
 141   23:10   35.8    95    0.4   335      1.2   781.8    0.00       0    999.0   13.1
 141   23:20   35.8    95    0.2   344      3.2   781.8    0.00       0    999.0   13.2
 141   23:30   35.8    95    0.4   329      2.6   781.8    0.00       0    999.0   13.4
 141   23:40   35.8    95    0.1   322      1.1   781.8    0.00       0    999.0   13.4
 141   23:50   35.8    95    0.9   340      2.7   781.7    0.00       0    999.0   13.5
 142    0:00   35.8    95    0.3   349      2.1   781.7    0.00       0    999.0   13.7
 142    0:10   35.8    95    0.2   346      1.3   781.7    0.00       0    999.0   13.7
 142    0:20   35.6    95    0.9     4      2.2   781.6    0.00       0    999.0   13.7
 142    0:30   35.6    95    0.8   348      1.4   781.6    0.00       0    999.0   13.8
 142    0:40   35.6    95    0.4   348      1.8   781.6    0.00       0    999.0   13.8
 142    0:50   35.6    95    0.8   352      2.7   781.6    0.00       0    999.0   13.8
 142    1:00   35.7    95    0.9   337      1.7   781.6    0.00       0    999.0   13.8
 142    1:10   35.6    95    0.8   346      2.0   781.5    0.00       0    999.0   13.8
 142    1:20   35.6    95    0.4   349      1.7   781.5    0.00       0    999.0   13.9
 142    1:30   35.6    95    0.7     0      2.2   781.4    0.00       0    999.0   13.9
 142    1:40   35.7    95    0.5   349      1.6   781.5    0.00       0    999.0   13.9
 142    1:50   35.7    95    1.1   339      2.5   781.5    0.00       0    999.0   13.9
 142    2:00   35.7    95    0.8   342      2.7   781.5    0.00       0    999.0   13.9
 142    2:10   35.7    95    0.3     6      2.0   781.5    0.00       0    999.0   13.9
 142    2:20   35.6    95    1.1    19      3.6   781.5    0.00       0    999.0   13.9
 142    2:30   35.5    95    0.9   358      3.4   781.4    0.00       0    999.0   13.9
 142    2:40   35.5    95    0.6   348      1.4   781.4    0.00       0    999.0   13.9
 142    2:50   35.5    95    0.6     2      2.4   781.4    0.00       0    999.0   13.8
 142    3:00   35.6    95    0.1   341      0.8   781.4    0.00       0    999.0   13.8
 142    3:10   35.7    95    0.5   341      1.7   781.4    0.00       0    999.0   13.8
 142    3:20   35.6    95    0.7   332      1.9   781.4    0.00       0    999.0   13.9
 142    3:30   35.6    95    0.5   332      1.8   781.4    0.00       0    999.0   13.9
 142    3:40   35.6    95    0.3   324      1.8   781.4    0.00       0    999.0   14.0
 142    3:50   35.6    95    0.3   326      1.8   781.4    0.00       0    999.0   14.1
 142    4:00   35.7    95    0.2   328      1.5   781.4    0.00       0    999.0   14.0
 142    4:10   35.7    95    0.2   322      1.1   781.4    0.00       0    999.0   14.1
 142    4:20   35.8    95    0.2   347      2.4   781.5    0.00       0    999.0   14.1
 142    4:30   35.8    95    0.3   345      1.5   781.5    0.00       0    999.0   14.0
 142    4:40   35.8    95    0.7   356      3.3   781.5    0.00       0    999.0   14.1
 142    4:50   35.8    95    0.5   350      1.7   781.5    0.00       1    999.0   14.2
 142    5:00   35.8    95    0.3   332      2.0   781.6    0.00       2    999.0   14.2
 142    5:10   35.8    95    0.0   356      0.9   781.6    0.00       4    999.0   14.1
 142    5:20   35.9    95    0.0   350      0.7   781.6    0.00       8    999.0   14.0
 142    5:30   36.0    95    0.0     0      0.0   781.6    0.00       9    999.0   13.9
 142    5:40   35.9    95    0.2   217      1.5   781.7    0.00       6    999.0   14.0
 142    5:50   35.8    95    0.0     0      0.0   781.8    0.00      10    999.0   14.0
 142    6:00   35.8    95    0.0    68      0.6   781.8    0.00      20    999.0   14.1
 142    6:10   35.9    95    0.2   110      1.5   781.9    0.00      19    999.0   14.1
 142    6:20   35.6    95    1.1   111      2.1   781.9    0.00      21    999.0   14.0
 142    6:30   35.5    95    1.6   121      2.5   782.0    0.00      40    999.0   14.1
 142    6:40   35.7    95    1.3   131      2.3   782.0    0.00      79    999.0   13.9
 142    6:50   36.0    95    1.1   114      2.3   782.1    0.00      97    999.0   13.8
 142    7:00   36.5    95    0.4   115      1.7   782.1    0.00     145    999.0   13.6
 142    7:10   37.5    95    1.4   168      3.6   782.2    0.00     173    999.0   13.7
 142    7:20   37.0    95    1.6   181      3.6   782.2    0.00      96    999.0   13.9
 142    7:30   36.9    95    0.7   225      3.0   782.3    0.00      61    999.0   13.9
 142    7:40   36.8    95    0.6   278      2.3   782.4    0.00      25    999.0   13.8
 142    7:50   36.5    95    0.5   344      2.2   782.5    0.00      38    999.0   13.7
 142    8:00   36.4    95    0.5   343      1.8   782.6    0.00     123    999.0   13.4
 142    8:10   36.8    95    1.0   357      2.1   782.6    0.00     112    999.0   13.8
 142    8:20   37.2    95    0.5   308      1.6   782.6    0.00      78    999.0   13.8
 142    8:30   37.2    95    1.0   296      3.4   782.6    0.00     100    999.0   13.8
 142    8:40   37.6    95    0.3   251      1.5   782.6    0.00     116    999.0   13.7
 142    8:50   37.8    95    0.1    80      1.2   782.6    0.00     117    999.0   13.7
 142    9:00   38.4    95    1.0   217      3.4   782.6    0.00     128    999.0   13.7
 142    9:10   38.3    95    2.2   163      4.2   782.7    0.00      92    999.0   13.8
 142    9:20   38.2    95    2.3   223      5.6   782.8    0.00     107    999.0   13.9
 142    9:30   37.9    95    1.2   283      2.8   782.8    0.00     117    999.0   13.9

Return to Alpha graphs page.


Western Regional Climate Center,wrcc@dri.edu